sensor_id;sensor_type;location;lat;lon;timestamp;P1;durP1;ratioP1;P2;durP2;ratioP2
37339;SDS011;23223;51.006;7.610;2023-08-17T00:01:34;15.88;;;8.13;;
37339;SDS011;23223;51.006;7.610;2023-08-17T00:04:00;11.43;;;8.30;;
37339;SDS011;23223;51.006;7.610;2023-08-17T00:06:25;9.57;;;7.13;;
37339;SDS011;23223;51.006;7.610;2023-08-17T00:08:51;12.73;;;9.40;;
37339;SDS011;23223;51.006;7.610;2023-08-17T00:11:16;17.67;;;8.82;;
37339;SDS011;23223;51.006;7.610;2023-08-17T00:13:42;17.60;;;9.18;;
37339;SDS011;23223;51.006;7.610;2023-08-17T00:16:08;16.77;;;8.27;;
37339;SDS011;23223;51.006;7.610;2023-08-17T00:18:33;9.57;;;8.68;;
37339;SDS011;23223;51.006;7.610;2023-08-17T00:20:59;12.15;;;8.80;;
37339;SDS011;23223;51.006;7.610;2023-08-17T00:23:25;10.15;;;8.93;;
37339;SDS011;23223;51.006;7.610;2023-08-17T00:25:53;10.15;;;7.95;;
37339;SDS011;23223;51.006;7.610;2023-08-17T00:28:19;16.10;;;8.27;;
37339;SDS011;23223;51.006;7.610;2023-08-17T00:30:44;13.30;;;8.55;;
37339;SDS011;23223;51.006;7.610;2023-08-17T00:33:10;17.52;;;8.05;;
37339;SDS011;23223;51.006;7.610;2023-08-17T00:35:36;9.18;;;7.10;;
37339;SDS011;23223;51.006;7.610;2023-08-17T00:38:01;10.95;;;7.70;;
37339;SDS011;23223;51.006;7.610;2023-08-17T00:40:27;12.82;;;7.72;;
37339;SDS011;23223;51.006;7.610;2023-08-17T00:42:52;8.75;;;7.78;;
37339;SDS011;23223;51.006;7.610;2023-08-17T00:45:18;12.40;;;8.10;;
37339;SDS011;23223;51.006;7.610;2023-08-17T00:47:44;9.23;;;8.02;;
37339;SDS011;23223;51.006;7.610;2023-08-17T00:50:11;10.15;;;8.48;;
37339;SDS011;23223;51.006;7.610;2023-08-17T00:52:37;15.18;;;8.07;;
37339;SDS011;23223;51.006;7.610;2023-08-17T00:55:03;15.63;;;8.60;;
37339;SDS011;23223;51.006;7.610;2023-08-17T00:57:31;12.55;;;7.95;;
37339;SDS011;23223;51.006;7.610;2023-08-17T00:59:58;11.38;;;6.70;;
37339;SDS011;23223;51.006;7.610;2023-08-17T01:02:24;10.63;;;7.00;;
37339;SDS011;23223;51.006;7.610;2023-08-17T01:04:50;9.30;;;7.55;;
37339;SDS011;23223;51.006;7.610;2023-08-17T01:07:15;14.85;;;8.10;;
37339;SDS011;23223;51.006;7.610;2023-08-17T01:09:41;17.27;;;7.60;;
37339;SDS011;23223;51.006;7.610;2023-08-17T01:12:08;13.15;;;7.65;;
37339;SDS011;23223;51.006;7.610;2023-08-17T01:17:42;18.35;;;7.93;;
37339;SDS011;23223;51.006;7.610;2023-08-17T01:20:14;13.50;;;7.82;;
37339;SDS011;23223;51.006;7.610;2023-08-17T01:22:42;15.52;;;9.10;;
37339;SDS011;23223;51.006;7.610;2023-08-17T01:25:10;12.93;;;8.77;;
37339;SDS011;23223;51.006;7.610;2023-08-17T01:27:40;13.00;;;8.30;;
37339;SDS011;23223;51.006;7.610;2023-08-17T01:30:10;16.52;;;8.27;;
37339;SDS011;23223;51.006;7.610;2023-08-17T01:32:48;12.70;;;9.38;;
37339;SDS011;23223;51.006;7.610;2023-08-17T01:35:20;10.70;;;9.63;;
37339;SDS011;23223;51.006;7.610;2023-08-17T01:37:50;16.20;;;10.18;;
37339;SDS011;23223;51.006;7.610;2023-08-17T01:40:20;12.30;;;8.98;;
37339;SDS011;23223;51.006;7.610;2023-08-17T01:42:47;18.52;;;9.05;;
37339;SDS011;23223;51.006;7.610;2023-08-17T01:45:15;13.98;;;9.80;;
37339;SDS011;23223;51.006;7.610;2023-08-17T01:47:41;12.93;;;6.97;;
37339;SDS011;23223;51.006;7.610;2023-08-17T01:50:06;11.98;;;8.18;;
37339;SDS011;23223;51.006;7.610;2023-08-17T01:52:32;7.90;;;7.00;;
37339;SDS011;23223;51.006;7.610;2023-08-17T01:54:58;6.65;;;5.40;;
37339;SDS011;23223;51.006;7.610;2023-08-17T01:57:23;9.60;;;5.95;;
37339;SDS011;23223;51.006;7.610;2023-08-17T01:59:49;15.13;;;7.60;;
37339;SDS011;23223;51.006;7.610;2023-08-17T02:02:15;14.80;;;6.95;;
37339;SDS011;23223;51.006;7.610;2023-08-17T02:04:40;13.35;;;6.85;;
37339;SDS011;23223;51.006;7.610;2023-08-17T02:07:06;9.20;;;5.05;;
37339;SDS011;23223;51.006;7.610;2023-08-17T02:09:31;11.60;;;6.63;;
37339;SDS011;23223;51.006;7.610;2023-08-17T02:11:57;15.68;;;6.78;;
37339;SDS011;23223;51.006;7.610;2023-08-17T02:14:22;9.63;;;5.53;;
37339;SDS011;23223;51.006;7.610;2023-08-17T02:16:48;12.70;;;5.38;;
37339;SDS011;23223;51.006;7.610;2023-08-17T02:19:14;10.05;;;5.95;;
37339;SDS011;23223;51.006;7.610;2023-08-17T02:21:39;14.07;;;6.93;;
37339;SDS011;23223;51.006;7.610;2023-08-17T02:24:05;13.60;;;6.03;;
37339;SDS011;23223;51.006;7.610;2023-08-17T02:26:31;13.38;;;6.57;;
37339;SDS011;23223;51.006;7.610;2023-08-17T02:28:56;11.73;;;6.88;;
37339;SDS011;23223;51.006;7.610;2023-08-17T02:31:22;9.52;;;6.72;;
37339;SDS011;23223;51.006;7.610;2023-08-17T02:33:48;16.38;;;6.80;;
37339;SDS011;23223;51.006;7.610;2023-08-17T02:36:13;12.60;;;6.85;;
37339;SDS011;23223;51.006;7.610;2023-08-17T02:38:39;11.23;;;6.55;;
37339;SDS011;23223;51.006;7.610;2023-08-17T02:41:05;10.80;;;6.40;;
37339;SDS011;23223;51.006;7.610;2023-08-17T02:43:30;13.45;;;6.43;;
37339;SDS011;23223;51.006;7.610;2023-08-17T02:45:56;11.18;;;6.60;;
37339;SDS011;23223;51.006;7.610;2023-08-17T02:48:21;9.95;;;6.00;;
37339;SDS011;23223;51.006;7.610;2023-08-17T02:50:47;12.15;;;7.38;;
37339;SDS011;23223;51.006;7.610;2023-08-17T02:53:13;6.65;;;5.20;;
37339;SDS011;23223;51.006;7.610;2023-08-17T02:55:38;8.27;;;5.75;;
37339;SDS011;23223;51.006;7.610;2023-08-17T02:58:04;11.55;;;5.13;;
37339;SDS011;23223;51.006;7.610;2023-08-17T03:00:29;7.97;;;4.63;;
37339;SDS011;23223;51.006;7.610;2023-08-17T03:02:55;8.60;;;5.28;;
37339;SDS011;23223;51.006;7.610;2023-08-17T03:05:21;6.65;;;4.88;;
37339;SDS011;23223;51.006;7.610;2023-08-17T03:07:46;6.50;;;4.60;;
37339;SDS011;23223;51.006;7.610;2023-08-17T03:10:12;12.77;;;6.28;;
37339;SDS011;23223;51.006;7.610;2023-08-17T03:12:38;9.65;;;4.65;;
37339;SDS011;23223;51.006;7.610;2023-08-17T03:15:07;10.15;;;4.93;;
37339;SDS011;23223;51.006;7.610;2023-08-17T03:17:32;8.43;;;4.25;;
37339;SDS011;23223;51.006;7.610;2023-08-17T03:19:58;8.65;;;4.70;;
37339;SDS011;23223;51.006;7.610;2023-08-17T03:22:25;5.05;;;3.75;;
37339;SDS011;23223;51.006;7.610;2023-08-17T03:24:50;9.63;;;5.13;;
37339;SDS011;23223;51.006;7.610;2023-08-17T03:27:16;12.10;;;5.35;;
37339;SDS011;23223;51.006;7.610;2023-08-17T03:29:42;9.07;;;5.07;;
37339;SDS011;23223;51.006;7.610;2023-08-17T03:32:07;9.05;;;5.22;;
37339;SDS011;23223;51.006;7.610;2023-08-17T03:34:33;6.88;;;3.85;;
37339;SDS011;23223;51.006;7.610;2023-08-17T03:36:58;13.95;;;5.32;;
37339;SDS011;23223;51.006;7.610;2023-08-17T03:39:24;8.20;;;3.53;;
37339;SDS011;23223;51.006;7.610;2023-08-17T03:41:50;7.78;;;4.43;;
37339;SDS011;23223;51.006;7.610;2023-08-17T03:44:15;9.43;;;5.10;;
37339;SDS011;23223;51.006;7.610;2023-08-17T03:46:41;12.32;;;6.15;;
37339;SDS011;23223;51.006;7.610;2023-08-17T03:49:06;13.15;;;5.82;;
37339;SDS011;23223;51.006;7.610;2023-08-17T03:51:32;11.82;;;5.65;;
37339;SDS011;23223;51.006;7.610;2023-08-17T03:53:58;6.78;;;5.40;;
37339;SDS011;23223;51.006;7.610;2023-08-17T03:56:24;8.00;;;5.82;;
37339;SDS011;23223;51.006;7.610;2023-08-17T03:58:50;5.82;;;3.75;;
37339;SDS011;23223;51.006;7.610;2023-08-17T04:01:15;8.77;;;3.90;;
37339;SDS011;23223;51.006;7.610;2023-08-17T04:03:41;6.35;;;4.10;;
37339;SDS011;23223;51.006;7.610;2023-08-17T04:06:07;8.13;;;5.25;;
37339;SDS011;23223;51.006;7.610;2023-08-17T04:08:35;6.10;;;4.60;;
37339;SDS011;23223;51.006;7.610;2023-08-17T04:11:02;8.82;;;5.53;;
37339;SDS011;23223;51.006;7.610;2023-08-17T04:13:28;9.63;;;5.82;;
37339;SDS011;23223;51.006;7.610;2023-08-17T04:15:53;10.10;;;7.82;;
37339;SDS011;23223;51.006;7.610;2023-08-17T04:18:19;10.30;;;7.32;;
37339;SDS011;23223;51.006;7.610;2023-08-17T04:20:44;5.40;;;4.38;;
37339;SDS011;23223;51.006;7.610;2023-08-17T04:23:10;14.65;;;7.55;;
37339;SDS011;23223;51.006;7.610;2023-08-17T04:25:35;4.93;;;4.47;;
37339;SDS011;23223;51.006;7.610;2023-08-17T04:28:01;6.18;;;5.03;;
37339;SDS011;23223;51.006;7.610;2023-08-17T04:30:27;6.57;;;4.75;;
37339;SDS011;23223;51.006;7.610;2023-08-17T04:32:52;9.60;;;7.07;;
37339;SDS011;23223;51.006;7.610;2023-08-17T04:35:18;14.20;;;7.15;;
37339;SDS011;23223;51.006;7.610;2023-08-17T04:37:45;10.48;;;6.95;;
37339;SDS011;23223;51.006;7.610;2023-08-17T04:40:12;8.07;;;6.55;;
37339;SDS011;23223;51.006;7.610;2023-08-17T04:42:38;9.43;;;7.03;;
37339;SDS011;23223;51.006;7.610;2023-08-17T04:45:03;8.93;;;7.28;;
37339;SDS011;23223;51.006;7.610;2023-08-17T04:47:29;5.72;;;4.93;;
37339;SDS011;23223;51.006;7.610;2023-08-17T04:49:55;10.57;;;7.05;;
37339;SDS011;23223;51.006;7.610;2023-08-17T04:52:20;15.57;;;8.65;;
37339;SDS011;23223;51.006;7.610;2023-08-17T04:54:46;13.50;;;8.18;;
37339;SDS011;23223;51.006;7.610;2023-08-17T04:57:12;8.07;;;7.28;;
37339;SDS011;23223;51.006;7.610;2023-08-17T04:59:37;12.70;;;7.85;;
37339;SDS011;23223;51.006;7.610;2023-08-17T05:02:03;11.38;;;7.68;;
37339;SDS011;23223;51.006;7.610;2023-08-17T05:04:32;8.43;;;6.68;;
37339;SDS011;23223;51.006;7.610;2023-08-17T05:06:57;9.82;;;7.05;;
37339;SDS011;23223;51.006;7.610;2023-08-17T05:09:23;13.15;;;8.10;;
37339;SDS011;23223;51.006;7.610;2023-08-17T05:11:48;10.38;;;7.70;;
37339;SDS011;23223;51.006;7.610;2023-08-17T05:14:14;6.10;;;4.57;;
37339;SDS011;23223;51.006;7.610;2023-08-17T05:16:40;9.65;;;5.80;;
37339;SDS011;23223;51.006;7.610;2023-08-17T05:19:05;9.40;;;5.95;;
37339;SDS011;23223;51.006;7.610;2023-08-17T05:21:31;9.43;;;6.80;;
37339;SDS011;23223;51.006;7.610;2023-08-17T05:23:56;9.90;;;6.35;;
37339;SDS011;23223;51.006;7.610;2023-08-17T05:26:23;7.45;;;6.75;;
37339;SDS011;23223;51.006;7.610;2023-08-17T05:28:49;7.75;;;6.88;;
37339;SDS011;23223;51.006;7.610;2023-08-17T05:31:15;9.90;;;7.68;;
37339;SDS011;23223;51.006;7.610;2023-08-17T05:33:40;9.23;;;6.63;;
37339;SDS011;23223;51.006;7.610;2023-08-17T05:36:06;8.85;;;7.30;;
37339;SDS011;23223;51.006;7.610;2023-08-17T05:38:32;5.82;;;4.50;;
37339;SDS011;23223;51.006;7.610;2023-08-17T05:40:58;9.45;;;8.13;;
37339;SDS011;23223;51.006;7.610;2023-08-17T05:43:25;8.02;;;7.07;;
37339;SDS011;23223;51.006;7.610;2023-08-17T05:45:51;11.43;;;8.00;;
37339;SDS011;23223;51.006;7.610;2023-08-17T05:48:20;8.93;;;7.38;;
37339;SDS011;23223;51.006;7.610;2023-08-17T05:50:46;12.05;;;8.40;;
37339;SDS011;23223;51.006;7.610;2023-08-17T05:53:12;10.25;;;6.78;;
37339;SDS011;23223;51.006;7.610;2023-08-17T05:55:37;12.75;;;7.30;;
37339;SDS011;23223;51.006;7.610;2023-08-17T05:58:03;7.80;;;7.03;;
37339;SDS011;23223;51.006;7.610;2023-08-17T06:00:29;6.97;;;5.72;;
37339;SDS011;23223;51.006;7.610;2023-08-17T06:02:54;5.63;;;4.68;;
37339;SDS011;23223;51.006;7.610;2023-08-17T06:05:26;4.15;;;3.75;;
37339;SDS011;23223;51.006;7.610;2023-08-17T06:07:52;5.75;;;3.50;;
37339;SDS011;23223;51.006;7.610;2023-08-17T06:10:17;6.53;;;4.07;;
37339;SDS011;23223;51.006;7.610;2023-08-17T06:12:43;4.95;;;3.70;;
37339;SDS011;23223;51.006;7.610;2023-08-17T06:15:09;6.82;;;4.45;;
37339;SDS011;23223;51.006;7.610;2023-08-17T06:17:35;4.38;;;3.38;;
37339;SDS011;23223;51.006;7.610;2023-08-17T06:20:00;4.60;;;3.83;;
37339;SDS011;23223;51.006;7.610;2023-08-17T06:22:27;5.03;;;3.53;;
37339;SDS011;23223;51.006;7.610;2023-08-17T06:24:53;4.32;;;3.85;;
37339;SDS011;23223;51.006;7.610;2023-08-17T06:27:18;5.13;;;3.70;;
37339;SDS011;23223;51.006;7.610;2023-08-17T06:29:44;5.13;;;3.90;;
37339;SDS011;23223;51.006;7.610;2023-08-17T06:32:10;3.15;;;2.80;;
37339;SDS011;23223;51.006;7.610;2023-08-17T06:34:35;4.22;;;3.35;;
37339;SDS011;23223;51.006;7.610;2023-08-17T06:37:02;4.28;;;3.13;;
37339;SDS011;23223;51.006;7.610;2023-08-17T06:39:28;4.95;;;3.35;;
37339;SDS011;23223;51.006;7.610;2023-08-17T06:41:54;4.35;;;2.97;;
37339;SDS011;23223;51.006;7.610;2023-08-17T06:44:20;3.67;;;3.38;;
37339;SDS011;23223;51.006;7.610;2023-08-17T06:46:45;3.80;;;3.17;;
37339;SDS011;23223;51.006;7.610;2023-08-17T06:49:11;2.95;;;2.65;;
37339;SDS011;23223;51.006;7.610;2023-08-17T06:51:37;2.72;;;2.53;;
37339;SDS011;23223;51.006;7.610;2023-08-17T06:54:04;6.03;;;3.72;;
37339;SDS011;23223;51.006;7.610;2023-08-17T06:56:30;3.45;;;3.15;;
37339;SDS011;23223;51.006;7.610;2023-08-17T06:58:56;3.22;;;2.92;;
37339;SDS011;23223;51.006;7.610;2023-08-17T07:01:21;7.07;;;4.45;;
37339;SDS011;23223;51.006;7.610;2023-08-17T07:03:47;2.88;;;2.50;;
37339;SDS011;23223;51.006;7.610;2023-08-17T07:06:12;2.63;;;2.42;;
37339;SDS011;23223;51.006;7.610;2023-08-17T07:08:38;4.88;;;3.10;;
37339;SDS011;23223;51.006;7.610;2023-08-17T07:11:04;7.53;;;5.35;;
37339;SDS011;23223;51.006;7.610;2023-08-17T07:13:31;3.92;;;2.63;;
37339;SDS011;23223;51.006;7.610;2023-08-17T07:15:57;6.25;;;3.40;;
37339;SDS011;23223;51.006;7.610;2023-08-17T07:18:22;5.28;;;3.30;;
37339;SDS011;23223;51.006;7.610;2023-08-17T07:20:48;4.22;;;3.38;;
37339;SDS011;23223;51.006;7.610;2023-08-17T07:23:14;6.45;;;4.68;;
37339;SDS011;23223;51.006;7.610;2023-08-17T07:25:40;3.72;;;3.20;;
37339;SDS011;23223;51.006;7.610;2023-08-17T07:28:05;7.93;;;5.65;;
37339;SDS011;23223;51.006;7.610;2023-08-17T07:30:31;4.53;;;3.40;;
37339;SDS011;23223;51.006;7.610;2023-08-17T07:32:57;4.45;;;3.13;;
37339;SDS011;23223;51.006;7.610;2023-08-17T07:35:23;3.97;;;3.08;;
37339;SDS011;23223;51.006;7.610;2023-08-17T07:37:48;3.10;;;2.80;;
37339;SDS011;23223;51.006;7.610;2023-08-17T07:40:14;6.22;;;3.35;;
37339;SDS011;23223;51.006;7.610;2023-08-17T07:42:39;6.40;;;3.15;;
37339;SDS011;23223;51.006;7.610;2023-08-17T07:45:05;7.72;;;6.38;;
37339;SDS011;23223;51.006;7.610;2023-08-17T07:47:33;7.93;;;5.82;;
37339;SDS011;23223;51.006;7.610;2023-08-17T07:50:01;5.85;;;4.93;;
37339;SDS011;23223;51.006;7.610;2023-08-17T07:52:27;8.68;;;3.63;;
37339;SDS011;23223;51.006;7.610;2023-08-17T07:54:53;7.32;;;4.88;;
37339;SDS011;23223;51.006;7.610;2023-08-17T07:57:19;4.70;;;3.05;;
37339;SDS011;23223;51.006;7.610;2023-08-17T07:59:49;6.28;;;5.55;;
37339;SDS011;23223;51.006;7.610;2023-08-17T08:02:16;2.92;;;2.63;;
37339;SDS011;23223;51.006;7.610;2023-08-17T08:04:42;5.55;;;4.00;;
37339;SDS011;23223;51.006;7.610;2023-08-17T08:07:08;4.85;;;3.63;;
37339;SDS011;23223;51.006;7.610;2023-08-17T08:09:35;3.95;;;2.92;;
37339;SDS011;23223;51.006;7.610;2023-08-17T08:12:00;6.90;;;4.18;;
37339;SDS011;23223;51.006;7.610;2023-08-17T08:14:27;3.70;;;3.40;;
37339;SDS011;23223;51.006;7.610;2023-08-17T08:16:52;2.65;;;2.45;;
37339;SDS011;23223;51.006;7.610;2023-08-17T08:19:18;2.92;;;2.60;;
37339;SDS011;23223;51.006;7.610;2023-08-17T08:21:43;5.10;;;4.60;;
37339;SDS011;23223;51.006;7.610;2023-08-17T08:24:09;5.53;;;4.15;;
37339;SDS011;23223;51.006;7.610;2023-08-17T08:26:35;5.75;;;4.75;;
37339;SDS011;23223;51.006;7.610;2023-08-17T08:29:01;5.60;;;5.03;;
37339;SDS011;23223;51.006;7.610;2023-08-17T08:31:27;6.35;;;4.85;;
37339;SDS011;23223;51.006;7.610;2023-08-17T08:33:52;4.97;;;4.47;;
37339;SDS011;23223;51.006;7.610;2023-08-17T08:36:19;5.35;;;4.75;;
37339;SDS011;23223;51.006;7.610;2023-08-17T08:38:44;6.72;;;5.13;;
37339;SDS011;23223;51.006;7.610;2023-08-17T08:41:11;6.68;;;3.67;;
37339;SDS011;23223;51.006;7.610;2023-08-17T08:43:37;4.55;;;3.97;;
37339;SDS011;23223;51.006;7.610;2023-08-17T08:46:06;5.28;;;3.55;;
37339;SDS011;23223;51.006;7.610;2023-08-17T08:48:31;4.85;;;2.97;;
37339;SDS011;23223;51.006;7.610;2023-08-17T08:51:01;4.00;;;2.80;;
37339;SDS011;23223;51.006;7.610;2023-08-17T08:53:37;9.55;;;3.10;;
37339;SDS011;23223;51.006;7.610;2023-08-17T08:56:07;4.78;;;2.90;;
37339;SDS011;23223;51.006;7.610;2023-08-17T08:58:39;3.95;;;3.55;;
37339;SDS011;23223;51.006;7.610;2023-08-17T09:01:07;3.95;;;3.22;;
37339;SDS011;23223;51.006;7.610;2023-08-17T09:03:34;4.47;;;3.30;;
37339;SDS011;23223;51.006;7.610;2023-08-17T09:06:01;6.35;;;3.38;;
37339;SDS011;23223;51.006;7.610;2023-08-17T09:08:29;3.95;;;3.25;;
37339;SDS011;23223;51.006;7.610;2023-08-17T09:10:56;3.85;;;3.10;;
37339;SDS011;23223;51.006;7.610;2023-08-17T09:13:21;2.35;;;2.13;;
37339;SDS011;23223;51.006;7.610;2023-08-17T09:15:47;4.60;;;2.45;;
37339;SDS011;23223;51.006;7.610;2023-08-17T09:18:13;4.22;;;3.00;;
37339;SDS011;23223;51.006;7.610;2023-08-17T09:20:39;4.78;;;3.40;;
37339;SDS011;23223;51.006;7.610;2023-08-17T09:23:10;4.53;;;2.90;;
37339;SDS011;23223;51.006;7.610;2023-08-17T09:25:44;4.15;;;2.90;;
37339;SDS011;23223;51.006;7.610;2023-08-17T09:28:11;4.68;;;3.33;;
37339;SDS011;23223;51.006;7.610;2023-08-17T09:30:48;3.50;;;2.78;;
37339;SDS011;23223;51.006;7.610;2023-08-17T09:33:14;5.95;;;4.57;;
37339;SDS011;23223;51.006;7.610;2023-08-17T09:35:41;3.45;;;2.30;;
37339;SDS011;23223;51.006;7.610;2023-08-17T09:38:07;4.47;;;3.63;;
37339;SDS011;23223;51.006;7.610;2023-08-17T09:40:32;4.72;;;3.65;;
37339;SDS011;23223;51.006;7.610;2023-08-17T09:42:59;4.93;;;3.60;;
37339;SDS011;23223;51.006;7.610;2023-08-17T09:45:25;4.60;;;3.97;;
37339;SDS011;23223;51.006;7.610;2023-08-17T09:47:52;4.80;;;4.03;;
37339;SDS011;23223;51.006;7.610;2023-08-17T09:50:21;6.32;;;4.03;;
37339;SDS011;23223;51.006;7.610;2023-08-17T09:52:47;5.80;;;4.00;;
37339;SDS011;23223;51.006;7.610;2023-08-17T09:55:17;5.60;;;3.80;;
37339;SDS011;23223;51.006;7.610;2023-08-17T09:57:43;7.35;;;4.07;;
37339;SDS011;23223;51.006;7.610;2023-08-17T10:00:10;3.20;;;2.88;;
37339;SDS011;23223;51.006;7.610;2023-08-17T10:02:36;3.97;;;2.83;;
37339;SDS011;23223;51.006;7.610;2023-08-17T10:05:01;3.13;;;2.40;;
37339;SDS011;23223;51.006;7.610;2023-08-17T10:07:30;5.65;;;3.53;;
37339;SDS011;23223;51.006;7.610;2023-08-17T10:10:03;5.57;;;4.07;;
37339;SDS011;23223;51.006;7.610;2023-08-17T10:12:31;5.28;;;3.58;;
37339;SDS011;23223;51.006;7.610;2023-08-17T10:15:02;3.67;;;2.83;;
37339;SDS011;23223;51.006;7.610;2023-08-17T10:17:34;3.78;;;2.78;;
37339;SDS011;23223;51.006;7.610;2023-08-17T10:20:09;3.13;;;2.83;;
37339;SDS011;23223;51.006;7.610;2023-08-17T10:25:19;5.53;;;3.28;;
37339;SDS011;23223;51.006;7.610;2023-08-17T10:27:46;3.13;;;2.83;;
37339;SDS011;23223;51.006;7.610;2023-08-17T10:30:13;5.55;;;2.80;;
37339;SDS011;23223;51.006;7.610;2023-08-17T10:32:39;4.88;;;4.25;;
37339;SDS011;23223;51.006;7.610;2023-08-17T10:35:10;4.82;;;3.70;;
37339;SDS011;23223;51.006;7.610;2023-08-17T10:37:36;4.40;;;2.60;;
37339;SDS011;23223;51.006;7.610;2023-08-17T10:40:03;2.50;;;2.30;;
37339;SDS011;23223;51.006;7.610;2023-08-17T10:42:33;3.47;;;2.60;;
37339;SDS011;23223;51.006;7.610;2023-08-17T10:45:00;4.63;;;3.47;;
37339;SDS011;23223;51.006;7.610;2023-08-17T10:47:29;3.10;;;2.88;;
37339;SDS011;23223;51.006;7.610;2023-08-17T10:50:04;2.20;;;2.00;;
37339;SDS011;23223;51.006;7.610;2023-08-17T10:52:47;2.50;;;2.30;;
37339;SDS011;23223;51.006;7.610;2023-08-17T10:55:14;3.80;;;2.83;;
37339;SDS011;23223;51.006;7.610;2023-08-17T10:57:41;3.42;;;2.97;;
37339;SDS011;23223;51.006;7.610;2023-08-17T11:02:40;3.00;;;2.80;;
37339;SDS011;23223;51.006;7.610;2023-08-17T11:05:08;4.00;;;3.20;;
37339;SDS011;23223;51.006;7.610;2023-08-17T11:07:40;3.08;;;2.63;;
37339;SDS011;23223;51.006;7.610;2023-08-17T11:12:43;5.43;;;3.22;;
37339;SDS011;23223;51.006;7.610;2023-08-17T11:15:09;5.70;;;3.97;;
37339;SDS011;23223;51.006;7.610;2023-08-17T11:17:35;5.82;;;2.85;;
37339;SDS011;23223;51.006;7.610;2023-08-17T11:20:01;3.10;;;2.80;;
37339;SDS011;23223;51.006;7.610;2023-08-17T11:22:27;4.95;;;3.13;;
37339;SDS011;23223;51.006;7.610;2023-08-17T11:24:53;6.53;;;3.63;;
37339;SDS011;23223;51.006;7.610;2023-08-17T11:27:19;5.43;;;2.53;;
37339;SDS011;23223;51.006;7.610;2023-08-17T11:29:45;3.85;;;3.25;;
37339;SDS011;23223;51.006;7.610;2023-08-17T11:32:12;10.20;;;5.43;;
37339;SDS011;23223;51.006;7.610;2023-08-17T11:34:40;4.38;;;3.88;;
37339;SDS011;23223;51.006;7.610;2023-08-17T11:37:06;7.30;;;3.80;;
37339;SDS011;23223;51.006;7.610;2023-08-17T11:39:34;4.45;;;2.75;;
37339;SDS011;23223;51.006;7.610;2023-08-17T11:42:00;2.38;;;2.17;;
37339;SDS011;23223;51.006;7.610;2023-08-17T11:44:26;3.22;;;2.47;;
37339;SDS011;23223;51.006;7.610;2023-08-17T11:46:51;3.20;;;2.50;;
37339;SDS011;23223;51.006;7.610;2023-08-17T11:49:18;4.88;;;2.35;;
37339;SDS011;23223;51.006;7.610;2023-08-17T11:51:43;3.38;;;3.08;;
37339;SDS011;23223;51.006;7.610;2023-08-17T11:54:10;3.45;;;3.15;;
37339;SDS011;23223;51.006;7.610;2023-08-17T11:56:36;3.90;;;3.60;;
37339;SDS011;23223;51.006;7.610;2023-08-17T11:59:08;4.15;;;3.13;;
37339;SDS011;23223;51.006;7.610;2023-08-17T12:01:44;3.80;;;2.63;;
37339;SDS011;23223;51.006;7.610;2023-08-17T12:04:10;4.22;;;2.67;;
37339;SDS011;23223;51.006;7.610;2023-08-17T12:06:37;4.32;;;3.13;;
37339;SDS011;23223;51.006;7.610;2023-08-17T12:09:09;3.67;;;2.75;;
37339;SDS011;23223;51.006;7.610;2023-08-17T12:11:34;3.05;;;2.75;;
37339;SDS011;23223;51.006;7.610;2023-08-17T12:14:07;2.28;;;2.08;;
37339;SDS011;23223;51.006;7.610;2023-08-17T12:16:44;3.25;;;2.20;;
37339;SDS011;23223;51.006;7.610;2023-08-17T12:19:13;2.00;;;1.80;;
37339;SDS011;23223;51.006;7.610;2023-08-17T12:21:40;5.22;;;2.53;;
37339;SDS011;23223;51.006;7.610;2023-08-17T12:24:08;3.50;;;2.80;;
37339;SDS011;23223;51.006;7.610;2023-08-17T12:26:34;4.47;;;2.47;;
37339;SDS011;23223;51.006;7.610;2023-08-17T12:29:00;2.70;;;2.50;;
37339;SDS011;23223;51.006;7.610;2023-08-17T12:31:30;2.40;;;2.20;;
37339;SDS011;23223;51.006;7.610;2023-08-17T12:33:56;3.10;;;2.53;;
37339;SDS011;23223;51.006;7.610;2023-08-17T12:36:22;4.82;;;2.75;;
37339;SDS011;23223;51.006;7.610;2023-08-17T12:38:47;3.50;;;2.90;;
37339;SDS011;23223;51.006;7.610;2023-08-17T12:41:13;3.22;;;2.28;;
37339;SDS011;23223;51.006;7.610;2023-08-17T12:43:39;3.63;;;3.28;;
37339;SDS011;23223;51.006;7.610;2023-08-17T12:46:04;2.92;;;2.50;;
37339;SDS011;23223;51.006;7.610;2023-08-17T12:48:30;2.65;;;2.45;;
37339;SDS011;23223;51.006;7.610;2023-08-17T12:50:55;3.17;;;2.50;;
37339;SDS011;23223;51.006;7.610;2023-08-17T12:53:21;4.65;;;2.80;;
37339;SDS011;23223;51.006;7.610;2023-08-17T12:55:47;2.63;;;2.42;;
37339;SDS011;23223;51.006;7.610;2023-08-17T12:58:14;3.35;;;2.80;;
37339;SDS011;23223;51.006;7.610;2023-08-17T13:00:39;4.38;;;2.80;;
37339;SDS011;23223;51.006;7.610;2023-08-17T13:03:05;2.50;;;2.30;;
37339;SDS011;23223;51.006;7.610;2023-08-17T13:05:30;3.95;;;2.58;;
37339;SDS011;23223;51.006;7.610;2023-08-17T13:07:57;2.92;;;2.28;;
37339;SDS011;23223;51.006;7.610;2023-08-17T13:10:22;3.03;;;2.72;;
37339;SDS011;23223;51.006;7.610;2023-08-17T13:12:48;7.00;;;2.35;;
37339;SDS011;23223;51.006;7.610;2023-08-17T13:15:13;3.08;;;2.88;;
37339;SDS011;23223;51.006;7.610;2023-08-17T13:17:39;5.70;;;3.00;;
37339;SDS011;23223;51.006;7.610;2023-08-17T13:20:05;3.25;;;2.95;;
37339;SDS011;23223;51.006;7.610;2023-08-17T13:22:31;4.47;;;2.55;;
37339;SDS011;23223;51.006;7.610;2023-08-17T13:24:57;5.53;;;2.85;;
37339;SDS011;23223;51.006;7.610;2023-08-17T13:27:23;6.85;;;3.17;;
37339;SDS011;23223;51.006;7.610;2023-08-17T13:29:48;5.18;;;2.97;;
37339;SDS011;23223;51.006;7.610;2023-08-17T13:32:14;7.95;;;2.50;;
37339;SDS011;23223;51.006;7.610;2023-08-17T13:34:39;5.90;;;3.20;;
37339;SDS011;23223;51.006;7.610;2023-08-17T13:37:05;2.80;;;2.60;;
37339;SDS011;23223;51.006;7.610;2023-08-17T13:39:30;2.55;;;2.35;;
37339;SDS011;23223;51.006;7.610;2023-08-17T13:41:57;3.22;;;3.00;;
37339;SDS011;23223;51.006;7.610;2023-08-17T13:44:23;4.63;;;3.08;;
37339;SDS011;23223;51.006;7.610;2023-08-17T13:46:48;4.95;;;2.95;;
37339;SDS011;23223;51.006;7.610;2023-08-17T13:49:14;3.33;;;2.95;;
37339;SDS011;23223;51.006;7.610;2023-08-17T13:51:39;4.28;;;2.72;;
37339;SDS011;23223;51.006;7.610;2023-08-17T13:54:05;2.90;;;2.50;;
37339;SDS011;23223;51.006;7.610;2023-08-17T13:56:30;3.88;;;2.88;;
37339;SDS011;23223;51.006;7.610;2023-08-17T13:58:56;3.95;;;2.67;;
37339;SDS011;23223;51.006;7.610;2023-08-17T14:01:22;6.78;;;3.05;;
37339;SDS011;23223;51.006;7.610;2023-08-17T14:03:47;3.03;;;2.38;;
37339;SDS011;23223;51.006;7.610;2023-08-17T14:06:13;4.07;;;2.40;;
37339;SDS011;23223;51.006;7.610;2023-08-17T14:08:38;3.30;;;2.67;;
37339;SDS011;23223;51.006;7.610;2023-08-17T14:11:04;4.32;;;2.35;;
37339;SDS011;23223;51.006;7.610;2023-08-17T14:13:31;4.22;;;3.08;;
37339;SDS011;23223;51.006;7.610;2023-08-17T14:15:57;4.47;;;3.22;;
37339;SDS011;23223;51.006;7.610;2023-08-17T14:18:24;3.47;;;2.22;;
37339;SDS011;23223;51.006;7.610;2023-08-17T14:20:50;4.40;;;2.50;;
37339;SDS011;23223;51.006;7.610;2023-08-17T14:23:15;3.00;;;2.65;;
37339;SDS011;23223;51.006;7.610;2023-08-17T14:25:41;3.38;;;2.58;;
37339;SDS011;23223;51.006;7.610;2023-08-17T14:28:06;3.28;;;2.45;;
37339;SDS011;23223;51.006;7.610;2023-08-17T14:30:33;5.85;;;2.22;;
37339;SDS011;23223;51.006;7.610;2023-08-17T14:32:59;4.07;;;2.40;;
37339;SDS011;23223;51.006;7.610;2023-08-17T14:35:25;8.68;;;3.03;;
37339;SDS011;23223;51.006;7.610;2023-08-17T14:37:51;5.90;;;2.47;;
37339;SDS011;23223;51.006;7.610;2023-08-17T14:40:17;4.53;;;2.70;;
37339;SDS011;23223;51.006;7.610;2023-08-17T14:42:43;3.58;;;2.65;;
37339;SDS011;23223;51.006;7.610;2023-08-17T14:45:09;2.22;;;2.03;;
37339;SDS011;23223;51.006;7.610;2023-08-17T14:47:36;4.07;;;3.13;;
37339;SDS011;23223;51.006;7.610;2023-08-17T14:50:01;6.78;;;3.40;;
37339;SDS011;23223;51.006;7.610;2023-08-17T14:52:27;3.58;;;3.17;;